sensor_id;sensor_type;location;lat;lon;timestamp;P1;durP1;ratioP1;P2;durP2;ratioP2
17658;SDS011;8948;51.534;8.262;2022-11-11T00:01:46;7.23;;;2.60;;
17658;SDS011;8948;51.534;8.262;2022-11-11T00:06:47;6.73;;;2.70;;
17658;SDS011;8948;51.534;8.262;2022-11-11T00:11:47;5.73;;;2.43;;
17658;SDS011;8948;51.534;8.262;2022-11-11T00:16:48;9.03;;;2.37;;
17658;SDS011;8948;51.534;8.262;2022-11-11T00:22:14;7.93;;;2.60;;
17658;SDS011;8948;51.534;8.262;2022-11-11T00:27:38;6.30;;;2.40;;
17658;SDS011;8948;51.534;8.262;2022-11-11T00:32:39;5.97;;;2.20;;
17658;SDS011;8948;51.534;8.262;2022-11-11T00:37:40;4.90;;;2.10;;
17658;SDS011;8948;51.534;8.262;2022-11-11T00:42:42;7.17;;;2.53;;
17658;SDS011;8948;51.534;8.262;2022-11-11T00:47:42;9.60;;;2.50;;
17658;SDS011;8948;51.534;8.262;2022-11-11T00:58:39;7.53;;;2.67;;
17658;SDS011;8948;51.534;8.262;2022-11-11T01:03:40;9.17;;;2.50;;
17658;SDS011;8948;51.534;8.262;2022-11-11T01:08:40;6.90;;;2.53;;
17658;SDS011;8948;51.534;8.262;2022-11-11T01:13:41;6.80;;;2.43;;
17658;SDS011;8948;51.534;8.262;2022-11-11T01:18:42;7.10;;;2.57;;
17658;SDS011;8948;51.534;8.262;2022-11-11T01:23:43;5.37;;;2.17;;
17658;SDS011;8948;51.534;8.262;2022-11-11T01:28:52;4.63;;;2.00;;
17658;SDS011;8948;51.534;8.262;2022-11-11T01:33:54;6.27;;;2.20;;
17658;SDS011;8948;51.534;8.262;2022-11-11T01:38:56;5.07;;;1.93;;
17658;SDS011;8948;51.534;8.262;2022-11-11T01:44:04;5.50;;;2.33;;
17658;SDS011;8948;51.534;8.262;2022-11-11T01:54:22;9.03;;;2.37;;
17658;SDS011;8948;51.534;8.262;2022-11-11T01:59:27;3.70;;;1.90;;
17658;SDS011;8948;51.534;8.262;2022-11-11T02:04:31;5.17;;;2.10;;
17658;SDS011;8948;51.534;8.262;2022-11-11T02:09:51;6.77;;;2.10;;
17658;SDS011;8948;51.534;8.262;2022-11-11T02:14:54;7.60;;;2.17;;
17658;SDS011;8948;51.534;8.262;2022-11-11T02:19:59;8.53;;;2.20;;
17658;SDS011;8948;51.534;8.262;2022-11-11T02:25:01;5.37;;;2.57;;
17658;SDS011;8948;51.534;8.262;2022-11-11T02:30:05;4.40;;;2.13;;
17658;SDS011;8948;51.534;8.262;2022-11-11T02:35:15;4.07;;;2.00;;
17658;SDS011;8948;51.534;8.262;2022-11-11T02:40:19;8.03;;;2.00;;
17658;SDS011;8948;51.534;8.262;2022-11-11T02:45:21;4.60;;;2.17;;
17658;SDS011;8948;51.534;8.262;2022-11-11T02:50:21;4.97;;;1.93;;
17658;SDS011;8948;51.534;8.262;2022-11-11T02:55:22;4.80;;;2.23;;
17658;SDS011;8948;51.534;8.262;2022-11-11T03:00:22;6.73;;;2.13;;
17658;SDS011;8948;51.534;8.262;2022-11-11T03:05:23;4.50;;;2.07;;
17658;SDS011;8948;51.534;8.262;2022-11-11T03:10:23;3.87;;;2.00;;
17658;SDS011;8948;51.534;8.262;2022-11-11T03:15:24;3.97;;;2.00;;
17658;SDS011;8948;51.534;8.262;2022-11-11T03:20:25;7.10;;;2.10;;
17658;SDS011;8948;51.534;8.262;2022-11-11T03:25:45;4.37;;;1.87;;
17658;SDS011;8948;51.534;8.262;2022-11-11T03:30:47;5.10;;;2.10;;
17658;SDS011;8948;51.534;8.262;2022-11-11T03:35:48;7.40;;;2.30;;
17658;SDS011;8948;51.534;8.262;2022-11-11T03:40:50;4.57;;;1.90;;
17658;SDS011;8948;51.534;8.262;2022-11-11T03:45:53;4.20;;;2.00;;
17658;SDS011;8948;51.534;8.262;2022-11-11T03:50:55;6.40;;;1.47;;
17658;SDS011;8948;51.534;8.262;2022-11-11T03:55:56;7.77;;;1.83;;
17658;SDS011;8948;51.534;8.262;2022-11-11T04:00:56;5.13;;;1.87;;
17658;SDS011;8948;51.534;8.262;2022-11-11T04:05:57;3.13;;;1.73;;
17658;SDS011;8948;51.534;8.262;2022-11-11T04:11:26;6.03;;;1.90;;
17658;SDS011;8948;51.534;8.262;2022-11-11T04:16:32;2.77;;;1.60;;
17658;SDS011;8948;51.534;8.262;2022-11-11T04:21:32;4.80;;;2.13;;
17658;SDS011;8948;51.534;8.262;2022-11-11T04:26:42;5.47;;;1.70;;
17658;SDS011;8948;51.534;8.262;2022-11-11T04:31:42;3.97;;;1.80;;
17658;SDS011;8948;51.534;8.262;2022-11-11T04:37:02;9.17;;;1.97;;
17658;SDS011;8948;51.534;8.262;2022-11-11T04:42:02;2.40;;;1.50;;
17658;SDS011;8948;51.534;8.262;2022-11-11T04:47:03;6.00;;;1.80;;
17658;SDS011;8948;51.534;8.262;2022-11-11T04:52:03;7.03;;;2.10;;
17658;SDS011;8948;51.534;8.262;2022-11-11T04:57:22;3.67;;;1.60;;
17658;SDS011;8948;51.534;8.262;2022-11-11T05:02:23;9.60;;;2.10;;
17658;SDS011;8948;51.534;8.262;2022-11-11T05:07:42;3.63;;;1.67;;
17658;SDS011;8948;51.534;8.262;2022-11-11T05:13:01;4.77;;;1.70;;
17658;SDS011;8948;51.534;8.262;2022-11-11T05:18:21;4.70;;;1.50;;
17658;SDS011;8948;51.534;8.262;2022-11-11T05:23:40;3.37;;;1.53;;
17658;SDS011;8948;51.534;8.262;2022-11-11T05:28:59;10.20;;;1.80;;
17658;SDS011;8948;51.534;8.262;2022-11-11T05:34:00;4.73;;;1.63;;
17658;SDS011;8948;51.534;8.262;2022-11-11T05:39:00;3.03;;;1.57;;
17658;SDS011;8948;51.534;8.262;2022-11-11T05:44:01;5.23;;;1.53;;
17658;SDS011;8948;51.534;8.262;2022-11-11T05:49:01;3.60;;;1.60;;
17658;SDS011;8948;51.534;8.262;2022-11-11T05:54:14;5.20;;;1.90;;
17658;SDS011;8948;51.534;8.262;2022-11-11T05:59:15;4.00;;;1.60;;
17658;SDS011;8948;51.534;8.262;2022-11-11T06:04:15;2.37;;;1.57;;
17658;SDS011;8948;51.534;8.262;2022-11-11T06:09:16;4.30;;;2.00;;
17658;SDS011;8948;51.534;8.262;2022-11-11T06:14:16;2.70;;;1.77;;
17658;SDS011;8948;51.534;8.262;2022-11-11T06:19:17;5.03;;;1.63;;
17658;SDS011;8948;51.534;8.262;2022-11-11T06:24:18;4.57;;;1.53;;
17658;SDS011;8948;51.534;8.262;2022-11-11T06:29:19;3.60;;;1.47;;
17658;SDS011;8948;51.534;8.262;2022-11-11T06:34:19;5.23;;;1.87;;
17658;SDS011;8948;51.534;8.262;2022-11-11T06:39:20;1.93;;;1.53;;
17658;SDS011;8948;51.534;8.262;2022-11-11T06:44:20;5.77;;;1.97;;
17658;SDS011;8948;51.534;8.262;2022-11-11T06:49:21;5.63;;;1.70;;
17658;SDS011;8948;51.534;8.262;2022-11-11T06:54:21;3.20;;;1.60;;
17658;SDS011;8948;51.534;8.262;2022-11-11T06:59:22;3.73;;;1.60;;
17658;SDS011;8948;51.534;8.262;2022-11-11T07:04:23;4.30;;;1.73;;
17658;SDS011;8948;51.534;8.262;2022-11-11T07:09:23;2.60;;;1.63;;
17658;SDS011;8948;51.534;8.262;2022-11-11T07:14:25;5.03;;;2.00;;
17658;SDS011;8948;51.534;8.262;2022-11-11T07:19:26;3.73;;;1.77;;
17658;SDS011;8948;51.534;8.262;2022-11-11T07:24:27;5.07;;;1.57;;
17658;SDS011;8948;51.534;8.262;2022-11-11T07:29:27;3.20;;;1.93;;
17658;SDS011;8948;51.534;8.262;2022-11-11T07:34:28;2.70;;;1.80;;
17658;SDS011;8948;51.534;8.262;2022-11-11T07:39:28;2.57;;;1.60;;
17658;SDS011;8948;51.534;8.262;2022-11-11T07:44:29;4.03;;;1.70;;
17658;SDS011;8948;51.534;8.262;2022-11-11T07:49:30;2.60;;;1.70;;
17658;SDS011;8948;51.534;8.262;2022-11-11T07:54:30;3.87;;;1.70;;
17658;SDS011;8948;51.534;8.262;2022-11-11T07:59:31;3.60;;;1.57;;
17658;SDS011;8948;51.534;8.262;2022-11-11T08:04:31;3.47;;;1.60;;
17658;SDS011;8948;51.534;8.262;2022-11-11T08:09:32;2.30;;;1.60;;
17658;SDS011;8948;51.534;8.262;2022-11-11T08:14:32;3.43;;;1.43;;
17658;SDS011;8948;51.534;8.262;2022-11-11T08:19:33;4.00;;;1.43;;
17658;SDS011;8948;51.534;8.262;2022-11-11T08:24:33;2.23;;;1.33;;
17658;SDS011;8948;51.534;8.262;2022-11-11T08:29:34;2.90;;;1.50;;
17658;SDS011;8948;51.534;8.262;2022-11-11T08:34:35;3.07;;;1.40;;
17658;SDS011;8948;51.534;8.262;2022-11-11T08:39:35;3.13;;;1.40;;
17658;SDS011;8948;51.534;8.262;2022-11-11T08:44:36;3.20;;;1.47;;
17658;SDS011;8948;51.534;8.262;2022-11-11T08:49:36;3.97;;;1.33;;
17658;SDS011;8948;51.534;8.262;2022-11-11T08:54:37;1.80;;;1.20;;
17658;SDS011;8948;51.534;8.262;2022-11-11T08:59:37;2.93;;;1.10;;
17658;SDS011;8948;51.534;8.262;2022-11-11T09:04:38;2.47;;;1.23;;
17658;SDS011;8948;51.534;8.262;2022-11-11T09:09:39;2.47;;;1.10;;
17658;SDS011;8948;51.534;8.262;2022-11-11T09:14:40;1.87;;;1.00;;
17658;SDS011;8948;51.534;8.262;2022-11-11T09:19:40;3.87;;;1.00;;
17658;SDS011;8948;51.534;8.262;2022-11-11T09:24:41;2.53;;;1.10;;
17658;SDS011;8948;51.534;8.262;2022-11-11T09:29:41;2.50;;;1.20;;
17658;SDS011;8948;51.534;8.262;2022-11-11T09:34:42;2.47;;;1.30;;
17658;SDS011;8948;51.534;8.262;2022-11-11T09:39:43;3.77;;;1.33;;
17658;SDS011;8948;51.534;8.262;2022-11-11T09:45:00;1.73;;;1.10;;
17658;SDS011;8948;51.534;8.262;2022-11-11T09:50:16;2.37;;;1.00;;
17658;SDS011;8948;51.534;8.262;2022-11-11T10:05:43;1.77;;;0.80;;
17658;SDS011;8948;51.534;8.262;2022-11-11T10:10:50;4.30;;;1.00;;
17658;SDS011;8948;51.534;8.262;2022-11-11T10:15:57;0.70;;;0.70;;
17658;SDS011;8948;51.534;8.262;2022-11-11T10:21:22;2.15;;;1.00;;
17658;SDS011;8948;51.534;8.262;2022-11-11T10:26:40;1.63;;;0.90;;
17658;SDS011;8948;51.534;8.262;2022-11-11T10:31:42;1.97;;;0.90;;
17658;SDS011;8948;51.534;8.262;2022-11-11T10:36:45;3.00;;;1.20;;
17658;SDS011;8948;51.534;8.262;2022-11-11T10:41:52;2.28;;;1.00;;
17658;SDS011;8948;51.534;8.262;2022-11-11T10:47:14;1.50;;;1.00;;
17658;SDS011;8948;51.534;8.262;2022-11-11T10:53:04;2.80;;;0.90;;
17658;SDS011;8948;51.534;8.262;2022-11-11T10:58:02;3.17;;;0.90;;
17658;SDS011;8948;51.534;8.262;2022-11-11T11:03:18;1.73;;;0.93;;
17658;SDS011;8948;51.534;8.262;2022-11-11T11:08:37;3.83;;;1.10;;
17658;SDS011;8948;51.534;8.262;2022-11-11T11:14:02;4.65;;;1.20;;
17658;SDS011;8948;51.534;8.262;2022-11-11T11:29:28;2.63;;;0.90;;
17658;SDS011;8948;51.534;8.262;2022-11-11T11:34:41;1.27;;;0.88;;
17658;SDS011;8948;51.534;8.262;2022-11-11T11:39:47;2.22;;;1.10;;
17658;SDS011;8948;51.534;8.262;2022-11-11T11:44:48;2.47;;;0.80;;
17658;SDS011;8948;51.534;8.262;2022-11-11T11:55:36;2.38;;;0.77;;
17658;SDS011;8948;51.534;8.262;2022-11-11T12:33:53;0.70;;;0.70;;
17658;SDS011;8948;51.534;8.262;2022-11-11T12:45:04;1.95;;;0.85;;
17658;SDS011;8948;51.534;8.262;2022-11-11T12:50:41;4.25;;;1.08;;
17658;SDS011;8948;51.534;8.262;2022-11-11T13:17:00;1.45;;;0.65;;
17658;SDS011;8948;51.534;8.262;2022-11-11T13:22:02;1.35;;;0.60;;
17658;SDS011;8948;51.534;8.262;2022-11-11T13:32:26;0.95;;;0.63;;
17658;SDS011;8948;51.534;8.262;2022-11-11T13:37:31;4.85;;;0.90;;
17658;SDS011;8948;51.534;8.262;2022-11-11T13:42:36;1.40;;;0.85;;
17658;SDS011;8948;51.534;8.262;2022-11-11T13:47:39;1.42;;;0.60;;
17658;SDS011;8948;51.534;8.262;2022-11-11T13:52:53;1.25;;;0.68;;
17658;SDS011;8948;51.534;8.262;2022-11-11T13:58:00;0.98;;;0.65;;
17658;SDS011;8948;51.534;8.262;2022-11-11T14:08:49;3.20;;;0.70;;
17658;SDS011;8948;51.534;8.262;2022-11-11T14:29:50;5.68;;;0.65;;
17658;SDS011;8948;51.534;8.262;2022-11-11T14:40:26;2.05;;;0.80;;
17658;SDS011;8948;51.534;8.262;2022-11-11T14:55:37;3.63;;;0.88;;
17658;SDS011;8948;51.534;8.262;2022-11-11T15:00:57;1.45;;;0.90;;
17658;SDS011;8948;51.534;8.262;2022-11-11T15:06:23;1.85;;;1.00;;
17658;SDS011;8948;51.534;8.262;2022-11-11T15:27:45;1.30;;;0.70;;
17658;SDS011;8948;51.534;8.262;2022-11-11T15:33:01;2.75;;;1.15;;
17658;SDS011;8948;51.534;8.262;2022-11-11T15:38:03;1.10;;;0.70;;
17658;SDS011;8948;51.534;8.262;2022-11-11T15:43:05;3.13;;;1.10;;
17658;SDS011;8948;51.534;8.262;2022-11-11T15:48:43;1.42;;;0.90;;
17658;SDS011;8948;51.534;8.262;2022-11-11T15:53:43;1.58;;;0.95;;
17658;SDS011;8948;51.534;8.262;2022-11-11T15:58:43;3.00;;;1.08;;
17658;SDS011;8948;51.534;8.262;2022-11-11T16:03:44;6.50;;;1.10;;
17658;SDS011;8948;51.534;8.262;2022-11-11T16:08:46;1.38;;;0.85;;
17658;SDS011;8948;51.534;8.262;2022-11-11T16:13:59;6.63;;;1.30;;
17658;SDS011;8948;51.534;8.262;2022-11-11T16:19:06;2.80;;;1.00;;
17658;SDS011;8948;51.534;8.262;2022-11-11T16:24:31;5.25;;;1.38;;
17658;SDS011;8948;51.534;8.262;2022-11-11T16:29:35;3.08;;;1.08;;
17658;SDS011;8948;51.534;8.262;2022-11-11T16:34:40;5.22;;;1.73;;
17658;SDS011;8948;51.534;8.262;2022-11-11T16:39:43;2.10;;;1.38;;
17658;SDS011;8948;51.534;8.262;2022-11-11T16:44:47;3.42;;;1.30;;
17658;SDS011;8948;51.534;8.262;2022-11-11T16:55:23;3.17;;;1.48;;
17658;SDS011;8948;51.534;8.262;2022-11-11T17:00:31;3.63;;;1.25;;
17658;SDS011;8948;51.534;8.262;2022-11-11T17:11:09;9.13;;;1.80;;
17658;SDS011;8948;51.534;8.262;2022-11-11T17:16:29;5.20;;;1.58;;
17658;SDS011;8948;51.534;8.262;2022-11-11T17:21:30;2.47;;;1.00;;
17658;SDS011;8948;51.534;8.262;2022-11-11T17:26:30;2.70;;;1.55;;
17658;SDS011;8948;51.534;8.262;2022-11-11T17:31:32;3.67;;;1.60;;
17658;SDS011;8948;51.534;8.262;2022-11-11T17:36:33;3.43;;;1.30;;
17658;SDS011;8948;51.534;8.262;2022-11-11T17:41:33;8.18;;;1.83;;
17658;SDS011;8948;51.534;8.262;2022-11-11T17:46:34;7.50;;;1.60;;
17658;SDS011;8948;51.534;8.262;2022-11-11T17:51:35;3.90;;;1.50;;
17658;SDS011;8948;51.534;8.262;2022-11-11T17:56:35;5.37;;;1.67;;
17658;SDS011;8948;51.534;8.262;2022-11-11T18:01:37;3.90;;;1.50;;
17658;SDS011;8948;51.534;8.262;2022-11-11T18:06:38;4.50;;;1.80;;
17658;SDS011;8948;51.534;8.262;2022-11-11T18:11:39;3.23;;;1.57;;
17658;SDS011;8948;51.534;8.262;2022-11-11T18:16:39;3.93;;;1.87;;
17658;SDS011;8948;51.534;8.262;2022-11-11T18:21:40;8.97;;;2.20;;
17658;SDS011;8948;51.534;8.262;2022-11-11T18:26:41;7.37;;;2.07;;
17658;SDS011;8948;51.534;8.262;2022-11-11T18:31:41;5.00;;;2.20;;
17658;SDS011;8948;51.534;8.262;2022-11-11T18:36:42;6.87;;;2.13;;
17658;SDS011;8948;51.534;8.262;2022-11-11T18:41:42;3.87;;;1.60;;
17658;SDS011;8948;51.534;8.262;2022-11-11T18:46:43;3.83;;;1.70;;
17658;SDS011;8948;51.534;8.262;2022-11-11T18:51:44;11.70;;;2.10;;
17658;SDS011;8948;51.534;8.262;2022-11-11T18:56:44;5.60;;;1.80;;
17658;SDS011;8948;51.534;8.262;2022-11-11T19:01:45;4.30;;;1.90;;
17658;SDS011;8948;51.534;8.262;2022-11-11T19:06:45;4.23;;;1.90;;
17658;SDS011;8948;51.534;8.262;2022-11-11T19:11:46;3.07;;;1.90;;
17658;SDS011;8948;51.534;8.262;2022-11-11T19:16:46;5.17;;;2.00;;
17658;SDS011;8948;51.534;8.262;2022-11-11T19:21:47;6.67;;;2.00;;
17658;SDS011;8948;51.534;8.262;2022-11-11T19:26:48;5.73;;;2.03;;
17658;SDS011;8948;51.534;8.262;2022-11-11T19:31:49;3.80;;;2.10;;
17658;SDS011;8948;51.534;8.262;2022-11-11T19:36:50;2.17;;;1.80;;
17658;SDS011;8948;51.534;8.262;2022-11-11T19:41:51;6.57;;;1.73;;
17658;SDS011;8948;51.534;8.262;2022-11-11T19:46:51;6.17;;;2.00;;
17658;SDS011;8948;51.534;8.262;2022-11-11T19:51:52;8.63;;;2.50;;
17658;SDS011;8948;51.534;8.262;2022-11-11T19:56:52;4.70;;;2.23;;
17658;SDS011;8948;51.534;8.262;2022-11-11T20:01:53;4.87;;;1.93;;
17658;SDS011;8948;51.534;8.262;2022-11-11T20:06:53;3.53;;;1.73;;
17658;SDS011;8948;51.534;8.262;2022-11-11T20:11:54;6.93;;;2.10;;
17658;SDS011;8948;51.534;8.262;2022-11-11T20:16:55;4.40;;;2.00;;
17658;SDS011;8948;51.534;8.262;2022-11-11T20:21:55;3.43;;;2.50;;
17658;SDS011;8948;51.534;8.262;2022-11-11T20:26:56;3.33;;;1.90;;
17658;SDS011;8948;51.534;8.262;2022-11-11T20:31:56;2.87;;;1.63;;
17658;SDS011;8948;51.534;8.262;2022-11-11T20:36:57;3.73;;;1.97;;
17658;SDS011;8948;51.534;8.262;2022-11-11T20:41:57;4.47;;;2.00;;
17658;SDS011;8948;51.534;8.262;2022-11-11T20:46:58;3.80;;;1.87;;
17658;SDS011;8948;51.534;8.262;2022-11-11T20:51:58;7.57;;;2.00;;
17658;SDS011;8948;51.534;8.262;2022-11-11T20:56:59;4.43;;;2.00;;
17658;SDS011;8948;51.534;8.262;2022-11-11T21:01:59;2.60;;;1.50;;
17658;SDS011;8948;51.534;8.262;2022-11-11T21:07:00;2.70;;;1.50;;
17658;SDS011;8948;51.534;8.262;2022-11-11T21:12:01;4.23;;;1.47;;
17658;SDS011;8948;51.534;8.262;2022-11-11T21:17:01;2.73;;;1.60;;
17658;SDS011;8948;51.534;8.262;2022-11-11T21:22:02;5.10;;;1.47;;
17658;SDS011;8948;51.534;8.262;2022-11-11T21:27:02;3.07;;;1.50;;
17658;SDS011;8948;51.534;8.262;2022-11-11T21:32:03;2.53;;;1.33;;
17658;SDS011;8948;51.534;8.262;2022-11-11T21:37:04;3.77;;;1.50;;
17658;SDS011;8948;51.534;8.262;2022-11-11T21:42:04;7.53;;;1.60;;
17658;SDS011;8948;51.534;8.262;2022-11-11T21:47:05;4.53;;;2.07;;
17658;SDS011;8948;51.534;8.262;2022-11-11T21:52:05;2.20;;;1.70;;
17658;SDS011;8948;51.534;8.262;2022-11-11T21:57:06;5.10;;;1.80;;
17658;SDS011;8948;51.534;8.262;2022-11-11T22:02:07;2.53;;;1.40;;
17658;SDS011;8948;51.534;8.262;2022-11-11T22:07:08;3.57;;;1.50;;
17658;SDS011;8948;51.534;8.262;2022-11-11T22:12:09;3.43;;;1.10;;
17658;SDS011;8948;51.534;8.262;2022-11-11T22:17:09;3.10;;;1.30;;
17658;SDS011;8948;51.534;8.262;2022-11-11T22:22:10;2.33;;;1.00;;
17658;SDS011;8948;51.534;8.262;2022-11-11T22:27:11;2.40;;;1.10;;
17658;SDS011;8948;51.534;8.262;2022-11-11T22:32:11;4.60;;;1.40;;
17658;SDS011;8948;51.534;8.262;2022-11-11T22:37:12;4.67;;;1.30;;
17658;SDS011;8948;51.534;8.262;2022-11-11T22:42:12;4.37;;;1.50;;
17658;SDS011;8948;51.534;8.262;2022-11-11T22:47:13;1.97;;;1.20;;
17658;SDS011;8948;51.534;8.262;2022-11-11T22:52:13;3.43;;;1.33;;
17658;SDS011;8948;51.534;8.262;2022-11-11T22:57:14;2.97;;;1.23;;
17658;SDS011;8948;51.534;8.262;2022-11-11T23:02:14;1.93;;;1.40;;
17658;SDS011;8948;51.534;8.262;2022-11-11T23:07:15;3.50;;;1.33;;
17658;SDS011;8948;51.534;8.262;2022-11-11T23:12:15;2.10;;;1.27;;
17658;SDS011;8948;51.534;8.262;2022-11-11T23:17:16;1.27;;;1.10;;
17658;SDS011;8948;51.534;8.262;2022-11-11T23:22:16;3.03;;;1.50;;
17658;SDS011;8948;51.534;8.262;2022-11-11T23:27:17;1.83;;;1.17;;
17658;SDS011;8948;51.534;8.262;2022-11-11T23:32:17;3.10;;;1.50;;
17658;SDS011;8948;51.534;8.262;2022-11-11T23:37:18;1.60;;;1.40;;
17658;SDS011;8948;51.534;8.262;2022-11-11T23:42:18;2.57;;;1.30;;
17658;SDS011;8948;51.534;8.262;2022-11-11T23:47:19;2.00;;;1.10;;
17658;SDS011;8948;51.534;8.262;2022-11-11T23:52:19;1.27;;;1.10;;
17658;SDS011;8948;51.534;8.262;2022-11-11T23:57:20;1.77;;;1.20;;
